Details for Ryanair at LEMD




Go Back


Latest METAR
Local Time

LEMD 250430Z 10004KT 030V150 9999 -RA VCTS FEW040CB BKN060 14/13 Q1014 R88/29//95 TEMPO TSRA FEW030CB

25/05/2018, 06:52:03

Description
Results
Ryanair Logo
Number of Pilots based at LEMD
0 Pilots Based here
Number of Ryanair Flights Departed from LEMD
12 Flights Departed
Number of Ryanair Flights Arrived at LEMD
11 Flights Arrived
Number of Ryanair Schedules Departing from LEMD
136 Schedules
Number of Ryanair Schedules Arriving at LEMD
133 Schedules
Number of Ryanair Schedules Departing from LEMD availible today
65 Schedules Today
Number of Ryanair Schedules Arriving at LEMD availible today
62 Schedules Today
Average Landing Rate at LEMD
-205 fpm
Ryanair Average Landing Rate at LEMD
-281 fpm
Total Fuel Purchased at LEMD by Ryanair
52,987.67 kgs / 116,816.62 lbs

Pilots Based at LEMD


Pilot ID
Pilot Name
Pilot Rank
No. of Flights
No. of Flying Hours
There are no pilots assigned to this hub!   Will you be the first?
Content